Flight Track Log - Related Links

Times and Time Zones

All times are in EDT time to prevent confusion due to time zone crossing. See the UAL481 flight status page for this flight to view local times or setup timezone preferences in your user account.

Time Position Orientation Groundspeed Altitude Reporting Facility
EDT Latitude Longitude Course Direction KTS MPH feet Rate Location/Type
Wed 12:52:17 AM 42.0000 -87.9500 289° West 156 180 1,600  Level Chicago TRACON
Wed 12:53:17 AM 42.0167 -88.0167 289° West 218 251 3,200 1,665 Climbing Chicago TRACON
Wed 12:54:52 AM 42.0542 -88.1431 292° West 245 282 5,900 2,538 Climbing Chicago Center
Wed 12:55:53 AM 42.1111 -88.2031 322° Northwest 260 299 9,800 3,393 Climbing Chicago Center
Wed 12:56:54 AM 42.1206 -88.3047 277° West 284 327 12,800 2,902 Climbing Chicago Center
Wed 12:57:55 AM 42.1167 -88.4131 267° West 292 336 15,700 2,876 Climbing Chicago Center
Wed 12:58:55 AM 42.1103 -88.5203 265° West 291 335 18,600 2,678 Climbing Chicago Center
Wed 12:59:56 AM 42.0733 -88.6403 248° West 344 396 21,100 1,967 Climbing Chicago Center
Wed 01:00:57 AM 42.0325 -88.7611 246° West 357 411 22,600 1,785 Climbing Chicago Center
Wed 01:01:57 AM 41.9847 -88.9183 248° West 380 437 24,700 2,033 Climbing Chicago Center
Wed 01:02:58 AM 41.9431 -89.0528 247° West 392 451 26,700 1,339 Climbing Chicago Center
Wed 01:03:58 AM 41.9006 -89.1931 248° West 406 467 27,400 1,289 Climbing Chicago Center
Wed 01:04:59 AM 41.8581 -89.3406 249° West 424 488 29,300 1,230 Climbing Chicago Center
Wed 01:06:00 AM 41.8175 -89.4847 249° West 418 481 29,900 645 Climbing Chicago Center
Wed 01:07:00 AM 41.7767 -89.6322 250° West 434 499 30,600 893 Climbing Chicago Center
Wed 01:08:01 AM 41.7347 -89.7853 250° West 441 507 31,700 1,041 Climbing Chicago Center
Wed 01:09:01 AM 41.6953 -89.9369 251° West 437 503 32,700 1,091 Climbing Chicago Center
Wed 01:10:02 AM 41.6572 -90.0917 252° West 439 505 33,900 984 Climbing Chicago Center
Wed 01:11:03 AM 41.6211 -90.2428 252° West 433 498 34,700 843 Climbing Chicago Center
Wed 01:12:03 AM 41.5794 -90.3975 250° West 439 505 35,600 645 Climbing Chicago Center
Wed 01:13:04 AM 41.5381 -90.5472 250° West 434 499 36,000 198 Climbing Chicago Center
Wed 01:14:04 AM 41.4981 -90.6942 250° West 426 490 36,000  Level Chicago Center
Wed 01:15:05 AM 41.4581 -90.8458 251° West 433 498 36,000  Level Chicago Center
Wed 01:16:05 AM 41.4094 -91.0275 250° West 435 501 36,000  Level Chicago Center
Wed 01:17:06 AM 41.3686 -91.1767 250° West 432 497 36,000  Level Chicago Center
Wed 01:18:06 AM 41.3481 -91.3350 260° West 438 504 36,000  Level Chicago Center
Wed 01:19:07 AM 41.3461 -91.4786 269° West 436 502 36,000  Level Chicago Center
Wed 01:20:07 AM 41.3428 -91.6403 268° West 438 504 36,000  Level Chicago Center
Wed 01:21:08 AM 41.3394 -91.8022 268° West 439 505 36,000 99 Level Chicago Center
Wed 01:22:08 AM 41.3369 -91.9661 269° West 444 511 36,200 694 Climbing Chicago Center
Wed 01:23:09 AM 41.3325 -92.1264 268° West 438 504 37,400 843 Climbing Chicago Center
Wed 01:24:09 AM 41.3286 -92.2836 268° West 430 495 37,900 298 Climbing Chicago Center
Wed 01:25:10 AM 41.3242 -92.4533 268° West 428 493 38,000 50 Climbing Chicago Center
Wed 01:26:10 AM 41.3200 -92.6081 268° West 425 489 38,000 50 Level Chicago Center
Wed 01:27:11 AM 41.3169 -92.7664 269° West 431 496 38,100  Climbing Chicago Center
Wed 01:28:11 AM 41.3347 -92.9236 279° West 434 499 38,000 -50 Descending Chicago Center
Wed 01:29:12 AM 41.3531 -93.0767 279° West 426 490 38,000  Level Chicago Center
Wed 01:30:12 AM 41.3744 -93.2625 279° West 428 493 38,000  Level Chicago Center
Wed 01:31:12 AM 41.3886 -93.4186 277° West 429 494 38,000  Level Chicago Center
Wed 01:32:13 AM 41.3981 -93.5731 275° West 426 490 38,000  Level Chicago Center
Wed 01:33:13 AM 41.4078 -93.7278 275° West 425 489 38,000  Level Chicago Center
Wed 01:34:14 AM 41.4189 -93.8822 276° West 424 488 38,000  Level Chicago Center
Wed 01:35:24 AM 41.4275 -94.0633 274° West 420 483 38,000  Level Minneapolis Center
Wed 01:36:25 AM 41.4269 -94.2178 270° West 420 483 38,000  Level Minneapolis Center
Wed 01:37:25 AM 41.4181 -94.3664 265° West 418 481 38,000  Level Minneapolis Center
Wed 01:38:26 AM 41.4086 -94.5214 265° West 419 482 38,000  Level Minneapolis Center
Wed 01:39:26 AM 41.3992 -94.6747 265° West 417 480 38,000  Level Minneapolis Center
Wed 01:40:27 AM 41.3892 -94.8283 265° West 415 478 38,000  Level Minneapolis Center
Wed 01:41:27 AM 41.3786 -94.9822 265° West 416 479 38,000 -99 Level Minneapolis Center
Wed 01:42:28 AM 41.3694 -95.1389 266° West 420 483 37,800 -595 Descending Minneapolis Center
Wed 01:43:28 AM 41.3597 -95.2981 265° West 429 494 36,800 -942 Descending Minneapolis Center
Wed 01:44:29 AM 41.3486 -95.4544 265° West 428 493 35,900 -1,041 Descending Minneapolis Center
Wed 01:45:29 AM 41.3367 -95.6308 265° West 417 480 34,700 -942 Descending Minneapolis Center
Wed 01:46:30 AM 41.3267 -95.7733 265° West 429 494 34,000 -347 Descending Minneapolis Center
Wed 01:47:30 AM 41.3161 -95.9306 265° West 428 493 34,000  Level Minneapolis Center
Wed 01:48:31 AM 41.3044 -96.0853 264° West 422 486 34,000  Level Minneapolis Center
Wed 01:49:31 AM 41.2947 -96.2400 265° West 421 484 34,000  Level Minneapolis Center
Wed 01:50:32 AM 41.2819 -96.3969 264° West 414 476 34,000  Level Minneapolis Center
Wed 01:51:32 AM 41.2700 -96.5478 264° West 410 472 34,000  Level Minneapolis Center
Wed 01:52:33 AM 41.2581 -96.6992 264° West 411 473 34,000  Level Minneapolis Center
Wed 01:53:33 AM 41.2450 -96.8514 264° West 414 476 34,000  Level Minneapolis Center
Wed 01:54:33 AM 41.2339 -97.0056 265° West 418 481 34,000  Level Minneapolis Center
Wed 01:55:34 AM 41.2203 -97.1597 263° West 420 483 34,000  Level Minneapolis Center
Wed 01:56:46 AM 41.2078 -97.3136 264° West 419 482 34,000  Level Minneapolis Center
Wed 01:57:47 AM 41.1911 -97.5244 264° West 421 484 34,000  Level Minneapolis Center
Wed 01:58:47 AM 41.1769 -97.6789 263° West 422 486 34,000  Level Minneapolis Center
Wed 01:59:48 AM 41.1636 -97.8344 264° West 424 488 34,000  Level Minneapolis Center
Wed 02:00:48 AM 41.1503 -97.9897 264° West 425 489 34,000  Level Minneapolis Center
Wed 02:01:48 AM 41.1361 -98.1458 263° West 425 489 34,000  Level Minneapolis Center
Wed 02:02:49 AM 41.1225 -98.3003 263° West 422 486 34,000  Level Minneapolis Center
Wed 02:03:49 AM 41.1069 -98.4597 263° West 422 486 34,000  Level Minneapolis Center
Wed 02:04:50 AM 41.0922 -98.6150 263° West 423 487 34,000  Level Minneapolis Center
Wed 02:05:50 AM 41.0772 -98.7711 263° West 427 491 34,000  Level Minneapolis Center
Wed 02:06:51 AM 41.0608 -98.9308 262° West 433 498 34,000  Level Minneapolis Center
Wed 02:07:51 AM 41.0467 -99.0881 263° West 431 496 34,000  Level Minneapolis Center
Wed 02:08:52 AM 41.0336 -99.2231 263° West 429 494 34,000  Level Minneapolis Center
Wed 02:09:52 AM 41.0181 -99.3814 263° West 431 496 34,000  Level Minneapolis Center
Wed 02:10:53 AM 40.9989 -99.5717 262° West 434 499 34,000  Level Minneapolis Center
Wed 02:11:53 AM 40.9831 -99.7289 262° West 432 497 34,000  Level Minneapolis Center
Wed 02:12:53 AM 40.9664 -99.8867 262° West 433 498 34,000  Level Minneapolis Center
Wed 02:13:54 AM 40.9497 -100.0450 262° West 434 499 34,000  Level Minneapolis Center
Wed 02:14:55 AM 40.9319 -100.2017 262° West 432 497 34,000  Level Minneapolis Center
Wed 02:15:55 AM 40.9147 -100.3600 262° West 434 499 34,000  Level Minneapolis Center
Wed 02:16:55 AM 40.8972 -100.5183 262° West 435 501 34,000  Level Minneapolis Center
Wed 02:17:56 AM 40.8803 -100.6767 262° West 435 501 34,000  Level Minneapolis Center
Wed 02:19:18 AM 40.8553 -100.8806 261° West 445 512 34,000  Level Denver Center
Wed 02:20:19 AM 40.8344 -101.0542 261° West 434 499 34,000  Level Denver Center
Wed 02:21:20 AM 40.8172 -101.2058 262° West 437 503 34,000  Level Denver Center
Wed 02:22:20 AM 40.7997 -101.3578 261° West 439 505 34,000  Level Denver Center
Wed 02:23:21 AM 40.7783 -101.5342 261° West 436 502 34,000  Level Denver Center
Wed 02:24:22 AM 40.7603 -101.6853 261° West 437 503 34,000  Level Denver Center
Wed 02:25:22 AM 40.7411 -101.8367 261° West 436 502 34,000  Level Denver Center
Wed 02:26:23 AM 40.7192 -102.0139 261° West 440 506 34,000  Level Denver Center
Wed 02:27:23 AM 40.6997 -102.1667 261° West 442 509 34,000  Level Denver Center
Wed 02:28:24 AM 40.6794 -102.3203 260° West 444 511 34,000  Level Denver Center
Wed 02:29:25 AM 40.6561 -102.5008 260° West 447 514 34,000  Level Denver Center
Wed 02:30:25 AM 40.6356 -102.6589 260° West 447 514 34,000  Level Denver Center
Wed 02:31:26 AM 40.6136 -102.8203 260° West 449 517 34,000  Level Denver Center
Wed 02:32:26 AM 40.5917 -102.9817 260° West 449 517 34,000  Level Denver Center
Wed 02:33:27 AM 40.5708 -103.1433 260° West 451 519 34,000 -1,180 Level Denver Center
Wed 02:34:28 AM 40.5483 -103.3039 260° West 450 518 31,600 -2,628 Descending Denver Center
Wed 02:35:28 AM 40.5269 -103.4686 260° West 458 527 28,700 -2,777 Descending Denver Center
Wed 02:36:29 AM 40.4861 -103.6281 251° West 467 537 26,000 -2,926 Descending Denver Center
Wed 02:37:29 AM 40.4269 -103.8019 246° West 481 554 22,800 -2,975 Descending Denver Center
Wed 02:38:30 AM 40.3764 -103.9506 246° West 444 511 20,000 -2,507 Descending Denver Center
Wed 02:39:43 AM 40.3108 -104.0747 235° Southwest 416 479 17,200 -2,887 Descending Denver Center
Wed 02:40:43 AM 40.2394 -104.2100 235° Southwest 370 426 13,600 -2,926 Descending Denver Center
Wed 02:41:44 AM 40.1819 -104.3186 235° Southwest 363 418 11,300 -1,438 Descending Denver Center
Wed 02:42:44 AM 40.1275 -104.4197 235° Southwest 340 391 10,700 -744 Descending Denver Center
Wed 02:43:45 AM 40.0800 -104.5069 235° Southwest 299 344 9,800 -1,230 Descending Denver Center
Wed 02:44:46 AM 40.0342 -104.5950 236° Southwest 295 339 8,200 -1,339 Descending Denver Center
Wed 02:45:46 AM 39.9942 -104.6703 235° Southwest 255 293 7,100 -942 Descending Denver Center
Wed 02:46:47 AM 39.9533 -104.6956 205° Southwest 168 193 6,300 -787 Descending Denver Center

Login

Don't have an account? Register now (free) for customized features, flight alerts, and more!